Time;durP1;ratioP1;P1;durP2;ratioP2;P2;SDS_P1;SDS_P2;PMS_P1;PMS_P2;Temp;Humidity;BMP_temperature;BMP_pressure;BME280_temperature;BME280_humidity;BME280_pressure;Samples;Min_cycle;Max_cycle;Signal;HPM_P1;HPM_P2
2021/09/09 00:02:16;;;;;;;0.60;0.38;;;15.50;99.90;;;;;;6148248;23;20115;-92
2021/09/09 00:04:43;;;;;;;0.28;0.28;;;15.50;99.90;;;;;;6123563;23;20017;-93
2021/09/09 00:07:10;;;;;;;0.20;0.20;;;15.50;99.90;;;;;;6147704;23;20021;-92
2021/09/09 00:09:37;;;;;;;0.30;0.30;;;15.60;99.90;;;;;;6147732;23;20018;-92
2021/09/09 00:12:04;;;;;;;0.63;0.30;;;15.50;99.90;;;;;;6147455;23;20010;-92
2021/09/09 00:14:31;;;;;;;1.08;0.50;;;15.40;99.90;;;;;;6147857;23;20010;-92
2021/09/09 00:16:58;;;;;;;0.85;0.47;;;15.50;99.90;;;;;;6147175;23;20048;-91
2021/09/09 00:19:25;;;;;;;1.10;0.47;;;15.50;99.90;;;;;;6146074;23;20383;-91
2021/09/09 00:21:52;;;;;;;1.02;0.35;;;15.50;99.90;;;;;;6123073;23;20072;-93
2021/09/09 00:24:19;;;;;;;0.43;0.30;;;15.50;99.90;;;;;;6147198;23;20092;-92
2021/09/09 00:26:46;;;;;;;0.47;0.32;;;15.50;99.90;;;;;;6147740;23;20025;-93
2021/09/09 00:29:13;;;;;;;0.20;0.15;;;15.50;99.90;;;;;;6147631;23;20014;-92
2021/09/09 00:31:40;;;;;;;0.45;0.30;;;15.50;99.90;;;;;;6147781;23;20025;-93
2021/09/09 00:34:07;;;;;;;0.10;0.10;;;15.50;99.90;;;;;;6147352;23;20022;-92
2021/09/09 00:36:33;;;;;;;0.38;0.22;;;15.50;99.90;;;;;;6123833;23;20458;-92
2021/09/09 00:39:00;;;;;;;0.32;0.32;;;15.50;99.90;;;;;;6148345;23;20045;-92
2021/09/09 00:41:30;;;;;;;0.32;0.25;;;15.50;99.90;;;;;;6148338;23;20067;-93
2021/09/09 00:43:57;;;;;;;0.60;0.38;;;15.50;99.90;;;;;;6147514;23;20053;-92
2021/09/09 00:46:24;;;;;;;0.90;0.47;;;15.50;99.90;;;;;;6148340;23;20509;-91
2021/09/09 00:48:52;;;;;;;0.22;0.22;;;15.40;99.90;;;;;;6123902;23;20406;-91
2021/09/09 00:51:19;;;;;;;0.45;0.35;;;15.40;99.90;;;;;;6123664;23;20439;-91
2021/09/09 00:53:47;;;;;;;0.82;0.30;;;15.50;99.90;;;;;;6147697;23;20014;-91
2021/09/09 00:56:14;;;;;;;1.02;0.50;;;15.50;99.90;;;;;;6147912;23;20093;-92
2021/09/09 00:58:42;;;;;;;0.77;0.57;;;15.50;99.90;;;;;;6147769;23;20014;-92
2021/09/09 01:01:09;;;;;;;1.13;0.60;;;15.50;99.90;;;;;;6147157;23;20017;-91
2021/09/09 01:03:36;;;;;;;0.30;0.30;;;15.50;99.90;;;;;;6147033;23;20010;-89
2021/09/09 01:06:03;;;;;;;0.30;0.30;;;15.50;99.90;;;;;;6146134;23;20021;-91
2021/09/09 01:08:31;;;;;;;1.67;0.50;;;15.50;99.90;;;;;;6147629;23;20494;-92
2021/09/09 01:10:59;;;;;;;0.52;0.20;;;15.50;99.90;;;;;;6147175;23;20021;-92
2021/09/09 01:13:25;;;;;;;0.65;0.25;;;15.40;99.90;;;;;;6148157;23;20462;-92
2021/09/09 01:15:52;;;;;;;0.32;0.17;;;15.40;99.90;;;;;;6147747;23;20014;-92
2021/09/09 01:18:19;;;;;;;0.50;0.32;;;15.30;99.90;;;;;;6123167;23;21307;-92
2021/09/09 01:20:47;;;;;;;0.63;0.38;;;15.30;99.90;;;;;;6147022;23;20097;-92
2021/09/09 01:23:13;;;;;;;0.38;0.22;;;15.30;99.90;;;;;;6146664;23;20021;-91
2021/09/09 01:25:40;;;;;;;0.40;0.25;;;15.30;99.90;;;;;;6147413;23;20014;-92
2021/09/09 01:28:07;;;;;;;0.32;0.22;;;15.20;99.90;;;;;;6147127;23;20028;-93
2021/09/09 01:30:35;;;;;;;0.22;0.20;;;15.20;99.90;;;;;;6147159;23;20017;-92
2021/09/09 01:33:02;;;;;;;0.57;0.35;;;15.10;99.90;;;;;;6123712;23;20022;-92
2021/09/09 01:35:30;;;;;;;0.70;0.35;;;15.20;99.90;;;;;;6147467;23;20456;-93
2021/09/09 01:37:56;;;;;;;0.60;0.40;;;15.20;99.90;;;;;;6147409;23;20018;-92
2021/09/09 01:40:28;;;;;;;0.20;0.20;;;15.20;99.90;;;;;;6146914;23;20084;-92
2021/09/09 01:42:56;;;;;;;0.38;0.20;;;15.20;99.90;;;;;;6146958;23;20363;-92
2021/09/09 01:45:23;;;;;;;0.93;0.30;;;15.20;99.90;;;;;;6145928;23;20093;-91
2021/09/09 01:47:49;;;;;;;0.68;0.45;;;15.20;99.90;;;;;;6146376;23;20056;-92
2021/09/09 01:50:16;;;;;;;1.02;0.60;;;15.10;99.90;;;;;;6145513;23;20025;-92
2021/09/09 01:52:43;;;;;;;0.60;0.40;;;15.10;99.90;;;;;;6098908;23;20053;-93
2021/09/09 01:55:10;;;;;;;0.20;0.17;;;15.10;99.90;;;;;;6147352;23;20096;-92
2021/09/09 01:57:37;;;;;;;0.38;0.20;;;15.10;99.90;;;;;;6147275;23;20442;-92
2021/09/09 02:00:04;;;;;;;0.43;0.30;;;15.00;99.90;;;;;;6123146;23;20016;-91
2021/09/09 02:02:31;;;;;;;0.43;0.30;;;15.00;99.90;;;;;;6147451;23;20021;-92
2021/09/09 02:04:58;;;;;;;0.30;0.17;;;15.00;99.90;;;;;;6123306;23;20022;-91
2021/09/09 02:07:25;;;;;;;0.47;0.38;;;15.00;99.90;;;;;;6146503;23;20100;-91
2021/09/09 02:09:53;;;;;;;1.00;0.52;;;15.00;99.90;;;;;;6146499;23;20014;-92
2021/09/09 02:12:20;;;;;;;0.30;0.30;;;14.90;99.90;;;;;;6146821;23;20018;-91
2021/09/09 02:14:47;;;;;;;0.75;0.32;;;14.90;99.90;;;;;;6146981;23;20018;-91
2021/09/09 02:17:14;;;;;;;0.40;0.22;;;14.90;99.90;;;;;;6147042;23;20457;-92
2021/09/09 02:19:40;;;;;;;0.68;0.32;;;14.90;99.90;;;;;;6145759;23;20025;-92
2021/09/09 02:22:07;;;;;;;0.57;0.40;;;14.80;99.90;;;;;;6146032;23;20471;-91
2021/09/09 02:24:34;;;;;;;0.70;0.55;;;14.80;99.90;;;;;;6147313;23;20017;-91
2021/09/09 02:27:01;;;;;;;0.20;0.20;;;14.80;99.90;;;;;;6146159;23;20347;-91
2021/09/09 02:29:27;;;;;;;0.50;0.30;;;14.80;99.90;;;;;;6121296;23;20022;-90
2021/09/09 02:31:54;;;;;;;1.02;0.50;;;14.70;99.90;;;;;;6145393;23;20024;-91
2021/09/09 02:34:21;;;;;;;0.57;0.30;;;14.80;99.90;;;;;;6146154;23;20014;-91
2021/09/09 02:36:48;;;;;;;0.38;0.22;;;14.70;99.90;;;;;;6146495;23;20017;-91
2021/09/09 02:39:14;;;;;;;0.75;0.45;;;14.80;99.90;;;;;;6146449;23;20097;-93
2021/09/09 02:41:41;;;;;;;0.63;0.43;;;14.70;99.90;;;;;;6146339;23;20041;-92
2021/09/09 02:44:08;;;;;;;0.15;0.15;;;14.70;99.90;;;;;;6122604;23;20014;-91
2021/09/09 02:46:35;;;;;;;0.68;0.30;;;14.70;99.90;;;;;;6122182;23;20018;-90
2021/09/09 02:49:01;;;;;;;0.30;0.28;;;14.70;99.90;;;;;;6122256;23;20017;-91
2021/09/09 02:51:28;;;;;;;0.55;0.30;;;14.70;99.90;;;;;;6122120;23;20017;-91
2021/09/09 02:53:55;;;;;;;0.93;0.40;;;14.60;99.90;;;;;;6146975;23;20014;-92
2021/09/09 02:56:22;;;;;;;0.43;0.28;;;14.50;99.90;;;;;;6146552;23;20014;-91
2021/09/09 02:58:48;;;;;;;0.95;0.60;;;14.50;99.90;;;;;;6145895;23;20010;-91
2021/09/09 03:01:15;;;;;;;0.35;0.22;;;14.50;99.90;;;;;;6122202;23;20074;-91
2021/09/09 03:03:42;;;;;;;0.13;0.10;;;14.60;99.90;;;;;;6146915;23;20014;-92
2021/09/09 03:06:09;;;;;;;0.38;0.28;;;14.40;99.90;;;;;;6146228;23;20014;-91
2021/09/09 03:08:36;;;;;;;0.00;0.00;;;14.50;99.90;;;;;;6169562;23;20022;-91
2021/09/09 03:11:03;;;;;;;0.20;0.20;;;14.50;99.90;;;;;;6145484;23;20435;-92
2021/09/09 03:13:29;;;;;;;0.13;0.10;;;14.50;99.90;;;;;;6145444;23;20331;-92
2021/09/09 03:15:56;;;;;;;0.25;0.20;;;14.40;99.90;;;;;;6122626;23;20014;-93
2021/09/09 03:18:23;;;;;;;0.30;0.30;;;14.40;99.90;;;;;;6145442;23;20014;-91
2021/09/09 03:20:52;;;;;;;0.55;0.22;;;14.40;99.90;;;;;;6146664;23;20014;-91
2021/09/09 03:23:19;;;;;;;0.47;0.30;;;14.40;99.90;;;;;;6122891;23;20010;-90
2021/09/09 03:25:46;;;;;;;0.13;0.13;;;14.40;99.90;;;;;;6146426;23;20014;-91
2021/09/09 03:28:13;;;;;;;0.38;0.20;;;14.30;99.90;;;;;;6122508;23;20076;-92
2021/09/09 03:30:40;;;;;;;0.10;0.10;;;14.20;99.90;;;;;;6146098;23;20446;-91
2021/09/09 03:33:06;;;;;;;0.25;0.25;;;14.30;99.90;;;;;;6144895;23;20202;-91
2021/09/09 03:35:33;;;;;;;0.65;0.30;;;14.30;99.90;;;;;;6144511;23;20050;-92
2021/09/09 03:38:00;;;;;;;0.25;0.25;;;14.20;99.90;;;;;;6145009;23;20010;-92
2021/09/09 03:40:27;;;;;;;0.50;0.22;;;14.20;99.90;;;;;;6144961;23;20046;-91
2021/09/09 03:42:53;;;;;;;0.45;0.30;;;14.20;99.90;;;;;;6144919;23;20010;-91
2021/09/09 03:45:20;;;;;;;0.13;0.13;;;14.20;99.90;;;;;;6120170;23;20014;-91
2021/09/09 03:47:47;;;;;;;0.03;0.03;;;14.10;99.90;;;;;;6120883;23;20028;-91
2021/09/09 03:50:14;;;;;;;0.17;0.17;;;14.10;99.90;;;;;;6144441;23;20018;-92
2021/09/09 03:52:40;;;;;;;0.00;0.00;;;14.10;99.90;;;;;;6144135;23;20473;-91
2021/09/09 03:55:08;;;;;;;0.25;0.10;;;14.10;99.90;;;;;;6144598;23;20018;-91
2021/09/09 03:57:35;;;;;;;0.28;0.22;;;14.10;99.90;;;;;;6144337;23;20010;-91
2021/09/09 04:00:02;;;;;;;0.00;0.00;;;14.00;99.90;;;;;;6144966;23;20067;-92
2021/09/09 04:02:29;;;;;;;0.17;0.17;;;14.00;99.90;;;;;;6144068;23;20014;-92
2021/09/09 04:04:56;;;;;;;0.25;0.17;;;14.00;99.90;;;;;;6144492;23;20308;-92
2021/09/09 04:07:23;;;;;;;0.73;0.30;;;14.00;99.90;;;;;;6144643;23;20431;-92
2021/09/09 04:09:49;;;;;;;2.78;0.35;;;13.90;99.90;;;;;;6120517;23;20439;-92
2021/09/09 04:12:16;;;;;;;0.47;0.20;;;13.90;99.90;;;;;;6120437;23;20010;-92
2021/09/09 04:14:43;;;;;;;0.10;0.10;;;13.90;99.90;;;;;;6143987;23;20077;-92
2021/09/09 04:17:10;;;;;;;0.08;0.08;;;13.90;99.90;;;;;;6144512;23;20014;-91
2021/09/09 04:19:37;;;;;;;0.00;0.00;;;13.90;99.90;;;;;;6119699;23;20073;-92
2021/09/09 04:22:07;;;;;;;0.00;0.00;;;13.80;99.90;;;;;;6120491;23;20065;-91
2021/09/09 04:24:35;;;;;;;0.03;0.03;;;13.80;99.90;;;;;;6120676;23;20014;-91
2021/09/09 04:27:03;;;;;;;0.00;0.00;;;13.80;99.90;;;;;;6144619;23;20017;-91
2021/09/09 04:29:30;;;;;;;0.03;0.03;;;13.70;99.90;;;;;;6144339;23;20017;-91
2021/09/09 04:31:58;;;;;;;0.20;0.10;;;13.70;99.90;;;;;;6168807;23;20029;-91
2021/09/09 04:34:24;;;;;;;0.03;0.03;;;13.70;99.90;;;;;;6120000;23;20017;-92
2021/09/09 04:36:51;;;;;;;0.35;0.22;;;13.70;99.90;;;;;;6144097;23;20014;-93
2021/09/09 04:39:18;;;;;;;0.03;0.03;;;13.70;99.90;;;;;;6144332;23;20510;-92
2021/09/09 04:41:45;;;;;;;0.15;0.10;;;13.70;99.90;;;;;;6143527;23;20048;-92
2021/09/09 04:44:11;;;;;;;0.20;0.10;;;13.70;99.90;;;;;;6145163;23;20021;-93
2021/09/09 04:46:38;;;;;;;0.32;0.22;;;13.70;99.90;;;;;;6145386;23;20014;-93
2021/09/09 04:49:05;;;;;;;0.10;0.00;;;13.60;99.90;;;;;;6145574;23;20017;-93
2021/09/09 04:51:32;;;;;;;0.38;0.13;;;13.60;99.90;;;;;;6144423;23;20026;-93
2021/09/09 04:53:58;;;;;;;0.05;0.05;;;13.60;99.90;;;;;;6145859;23;20014;-92
2021/09/09 04:56:25;;;;;;;0.45;0.22;;;13.50;99.90;;;;;;6144819;23;20014;-93
2021/09/09 04:58:52;;;;;;;0.80;0.52;;;13.50;99.90;;;;;;6122014;23;20104;-93
2021/09/09 05:01:19;;;;;;;0.00;0.00;;;13.50;99.90;;;;;;6145992;23;20010;-93
2021/09/09 05:03:46;;;;;;;0.00;0.00;;;13.50;99.90;;;;;;6121884;23;20021;-92
2021/09/09 05:06:12;;;;;;;0.40;0.20;;;13.50;99.90;;;;;;6145655;23;20020;-93
2021/09/09 05:08:39;;;;;;;0.45;0.17;;;13.50;99.90;;;;;;6122153;23;20370;-93
2021/09/09 05:11:09;;;;;;;0.03;0.03;;;13.50;99.90;;;;;;6145352;23;20020;-92
2021/09/09 05:13:35;;;;;;;0.08;0.08;;;13.50;99.90;;;;;;6145593;23;20018;-92
2021/09/09 05:16:02;;;;;;;0.08;0.08;;;13.50;99.90;;;;;;6145586;23;20041;-95
2021/09/09 05:18:29;;;;;;;0.08;0.03;;;13.50;99.90;;;;;;6147158;23;20021;-96
2021/09/09 05:20:56;;;;;;;0.00;0.00;;;13.60;99.90;;;;;;6103593;23;20026;-96
2021/09/09 05:26:00;;;;;;;0.17;0.13;;;13.50;99.90;;;;;;6179577;23;20076;-93
2021/09/09 05:28:31;;;;;;;0.13;0.10;;;13.50;99.90;;;;;;6177802;23;20017;-96
2021/09/09 05:49:03;;;;;;;0.00;0.00;;;13.70;99.90;;;;;;6235312;23;20031;-95
2021/09/09 05:51:31;;;;;;;0.20;0.10;;;13.50;99.90;;;;;;6211192;23;20032;-96
2021/09/09 05:53:59;;;;;;;0.00;0.00;;;13.80;99.90;;;;;;6185046;23;20013;-95
2021/09/09 05:56:26;;;;;;;0.00;0.00;;;13.90;99.90;;;;;;6159400;23;20024;-95
2021/09/09 05:59:00;;;;;;;0.08;0.08;;;13.90;99.90;;;;;;6185050;23;20814;-96
2021/09/09 06:01:30;;;;;;;0.90;0.10;;;14.10;99.90;;;;;;6189762;23;20017;-96
2021/09/09 06:03:57;;;;;;;0.10;0.03;;;14.00;99.90;;;;;;6156460;23;20045;-93
2021/09/09 06:06:25;;;;;;;0.55;0.30;;;14.10;99.90;;;;;;6155959;23;20338;-94
2021/09/09 06:08:52;;;;;;;0.68;0.20;;;14.20;99.90;;;;;;6203663;23;20025;-94
2021/09/09 06:11:19;;;;;;;0.00;0.00;;;14.20;99.90;;;;;;6180581;23;20021;-95
2021/09/09 06:13:45;;;;;;;0.30;0.25;;;14.20;99.90;;;;;;6154078;23;20069;-94
2021/09/09 06:16:12;;;;;;;0.03;0.03;;;14.30;99.90;;;;;;6103688;23;20088;-94
2021/09/09 06:18:39;;;;;;;0.00;0.00;;;14.30;99.90;;;;;;6150389;23;20040;-94
2021/09/09 06:21:06;;;;;;;0.00;0.00;;;14.30;99.90;;;;;;6125906;23;20009;-92
2021/09/09 06:23:33;;;;;;;0.28;0.17;;;14.40;99.90;;;;;;6126816;23;20398;-94
2021/09/09 06:25:59;;;;;;;0.17;0.08;;;14.40;99.90;;;;;;6127040;23;20024;-95
2021/09/09 06:28:26;;;;;;;0.95;0.40;;;14.50;99.90;;;;;;6107802;23;20001;-96
2021/09/09 06:30:53;;;;;;;0.00;0.00;;;14.60;99.90;;;;;;6128161;23;20017;-94
2021/09/09 06:33:20;;;;;;;0.10;0.10;;;14.60;99.90;;;;;;6104247;23;20017;-95
2021/09/09 06:35:47;;;;;;;0.38;0.22;;;14.70;99.90;;;;;;6127899;23;20048;-95
2021/09/09 06:38:14;;;;;;;0.10;0.10;;;14.70;99.90;;;;;;6104276;23;20014;-95
2021/09/09 06:40:40;;;;;;;0.20;0.20;;;14.80;99.90;;;;;;6129081;23;20013;-94
2021/09/09 06:43:07;;;;;;;0.28;0.17;;;14.90;99.90;;;;;;6152021;23;20379;-90
2021/09/09 06:45:34;;;;;;;0.30;0.30;;;15.00;99.90;;;;;;6125562;23;20080;-90
2021/09/09 06:48:01;;;;;;;0.13;0.13;;;15.00;99.90;;;;;;6149453;23;20509;-90
2021/09/09 06:50:28;;;;;;;0.10;0.10;;;15.10;99.90;;;;;;6101861;23;20462;-93
2021/09/09 06:52:54;;;;;;;0.45;0.38;;;15.20;99.90;;;;;;6125595;23;20024;-89
2021/09/09 06:55:21;;;;;;;0.98;0.35;;;15.30;99.90;;;;;;6126000;23;20052;-90
2021/09/09 06:57:48;;;;;;;0.20;0.20;;;15.30;99.90;;;;;;6150378;23;20017;-93
2021/09/09 07:00:15;;;;;;;0.60;0.20;;;15.40;99.90;;;;;;6127419;23;20013;-90
2021/09/09 07:02:42;;;;;;;0.13;0.13;;;15.50;99.90;;;;;;6150599;23;20013;-90
2021/09/09 07:05:11;;;;;;;0.25;0.15;;;15.50;99.90;;;;;;6103077;23;20354;-90
2021/09/09 07:07:39;;;;;;;0.30;0.30;;;15.60;99.90;;;;;;6126593;23;20024;-93
2021/09/09 07:10:07;;;;;;;0.45;0.25;;;15.70;99.90;;;;;;6127523;23;20013;-91
2021/09/09 07:12:34;;;;;;;0.40;0.32;;;15.70;99.90;;;;;;6127430;23;20052;-91
2021/09/09 07:15:02;;;;;;;0.17;0.13;;;15.80;99.90;;;;;;6126351;23;20018;-92
2021/09/09 07:17:28;;;;;;;0.77;0.32;;;15.90;99.90;;;;;;6150763;23;20041;-92
2021/09/09 07:19:55;;;;;;;0.47;0.30;;;16.00;99.90;;;;;;6127249;23;20013;-91
2021/09/09 07:22:22;;;;;;;0.40;0.40;;;16.10;99.90;;;;;;6151025;23;20014;-91
2021/09/09 07:24:49;;;;;;;0.73;0.32;;;16.20;99.90;;;;;;6102089;23;20017;-89
2021/09/09 07:27:16;;;;;;;0.90;0.47;;;16.30;99.90;;;;;;6150697;23;20016;-91
2021/09/09 07:29:42;;;;;;;0.63;0.47;;;16.40;99.90;;;;;;6102567;23;20017;-92
2021/09/09 07:32:09;;;;;;;1.50;0.73;;;16.60;99.90;;;;;;6102825;23;20389;-91
2021/09/09 07:34:36;;;;;;;2.38;0.95;;;16.60;99.90;;;;;;6126825;23;20033;-91
2021/09/09 07:37:03;;;;;;;0.68;0.45;;;16.80;99.90;;;;;;6127077;23;20021;-91
2021/09/09 07:39:29;;;;;;;2.40;0.75;;;16.90;99.90;;;;;;6102265;23;20013;-91
2021/09/09 07:41:56;;;;;;;1.35;0.82;;;17.00;99.90;;;;;;6127215;23;20014;-90
2021/09/09 07:44:23;;;;;;;0.93;0.77;;;17.10;99.90;;;;;;6126553;23;20049;-88
2021/09/09 07:46:50;;;;;;;1.08;0.82;;;17.20;99.90;;;;;;6126793;23;20020;-89
2021/09/09 07:49:17;;;;;;;0.45;0.28;;;17.40;99.90;;;;;;6097931;23;20026;-91
2021/09/09 07:51:45;;;;;;;0.43;0.32;;;17.40;99.90;;;;;;6145926;23;20092;-90
2021/09/09 07:54:12;;;;;;;1.25;0.50;;;17.60;99.90;;;;;;6122258;23;20014;-92
2021/09/09 07:56:39;;;;;;;0.52;0.32;;;17.60;99.90;;;;;;6146272;23;20028;-91
2021/09/09 07:59:05;;;;;;;1.40;0.73;;;17.80;99.90;;;;;;6098664;23;20093;-90
2021/09/09 08:01:32;;;;;;;1.88;0.90;;;17.90;99.90;;;;;;6098249;23;20042;-91
2021/09/09 08:03:59;;;;;;;1.38;0.88;;;18.00;99.90;;;;;;6096967;23;20446;-91
2021/09/09 08:06:25;;;;;;;1.95;0.95;;;18.10;99.90;;;;;;6121528;23;20018;-88
2021/09/09 08:08:52;;;;;;;2.22;1.02;;;18.20;99.90;;;;;;6120447;23;20339;-90
2021/09/09 08:11:28;;;;;;;1.33;0.65;;;18.30;99.90;;;;;;6098055;23;20469;-91
2021/09/09 08:14:01;;;;;;;3.10;1.50;;;18.40;99.90;;;;;;6145710;23;20024;-96
2021/09/09 08:16:30;;;;;;;2.45;1.10;;;18.40;99.90;;;;;;6148562;23;20024;-94
2021/09/09 08:19:32;;;;;;;4.10;1.10;;;18.70;99.90;;;;;;6123633;23;20117;-95
2021/09/09 08:22:47;;;;;;;3.40;1.13;;;18.80;99.90;;;;;;6143825;23;20018;-92
2021/09/09 08:25:14;;;;;;;2.25;1.15;;;19.00;99.90;;;;;;6134748;23;20014;-93
2021/09/09 08:27:50;;;;;;;2.03;1.00;;;19.10;99.90;;;;;;6129306;23;20010;-96
2021/09/09 08:30:23;;;;;;;2.25;0.68;;;19.20;99.90;;;;;;6158020;23;20029;-95
2021/09/09 08:32:50;;;;;;;2.00;1.13;;;19.30;99.90;;;;;;6146674;23;20014;-93
2021/09/09 08:35:17;;;;;;;3.00;1.38;;;19.40;99.90;;;;;;6148212;23;20049;-95
2021/09/09 08:37:44;;;;;;;2.90;1.33;;;19.50;99.90;;;;;;6152656;23;20017;-96
2021/09/09 08:40:11;;;;;;;1.63;1.10;;;19.60;99.90;;;;;;6122711;23;20093;-95
2021/09/09 08:42:40;;;;;;;2.28;1.13;;;19.70;99.90;;;;;;6152036;23;20044;-95
2021/09/09 08:45:26;;;;;;;2.03;1.15;;;19.90;99.90;;;;;;6155442;23;20041;-95
2021/09/09 08:48:04;;;;;;;3.15;1.48;;;20.10;99.90;;;;;;6147423;23;20053;-95
2021/09/09 08:50:32;;;;;;;3.00;1.42;;;20.20;99.90;;;;;;6150387;23;20022;-94
2021/09/09 08:53:11;;;;;;;4.32;1.45;;;20.30;99.90;;;;;;6145160;23;20112;-92
2021/09/09 08:55:38;;;;;;;2.85;1.42;;;20.40;99.90;;;;;;6145934;23;20018;-95
2021/09/09 08:58:34;;;;;;;1.90;0.93;;;20.50;99.90;;;;;;6122367;23;20014;-96
2021/09/09 09:01:18;;;;;;;2.60;1.42;;;20.80;99.90;;;;;;6170799;23;20022;-96
2021/09/09 09:04:01;;;;;;;3.55;1.33;;;20.90;99.90;;;;;;6148788;23;20016;-94
2021/09/09 09:06:30;;;;;;;3.92;1.52;;;20.90;99.90;;;;;;6145334;23;20072;-92
2021/09/09 09:09:05;;;;;;;2.10;1.23;;;21.10;99.90;;;;;;6145664;23;20465;-95
2021/09/09 09:11:39;;;;;;;2.03;1.20;;;21.20;99.90;;;;;;6145485;23;20453;-94
2021/09/09 09:14:15;;;;;;;3.40;1.70;;;21.30;99.90;;;;;;6146476;23;20018;-96
2021/09/09 09:16:55;;;;;;;4.38;1.77;;;21.30;99.90;;;;;;6123747;23;20069;-94
2021/09/09 09:19:29;;;;;;;3.65;1.85;;;21.40;99.90;;;;;;6145006;23;20020;-94
2021/09/09 09:22:06;;;;;;;3.42;1.73;;;21.60;99.90;;;;;;6146219;23;20010;-95
2021/09/09 09:24:43;;;;;;;2.78;1.38;;;21.70;99.90;;;;;;6147513;23;20014;-93
2021/09/09 09:27:15;;;;;;;3.83;1.17;;;21.80;99.90;;;;;;6145634;23;20029;-93
2021/09/09 09:30:03;;;;;;;3.22;1.40;;;22.00;99.90;;;;;;6145463;23;20014;-93
2021/09/09 09:32:31;;;;;;;2.65;1.20;;;22.10;99.90;;;;;;6146169;23;20014;-94
2021/09/09 09:35:13;;;;;;;4.10;1.45;;;22.20;99.90;;;;;;6144733;23;20017;-90
2021/09/09 09:37:59;;;;;;;3.78;1.48;;;22.30;99.90;;;;;;6146302;23;20049;-93
2021/09/09 09:40:28;;;;;;;2.58;1.30;;;22.40;99.90;;;;;;6145086;23;20438;-95
2021/09/09 09:42:56;;;;;;;4.15;1.33;;;22.50;99.90;;;;;;6145451;23;20014;-92
2021/09/09 09:45:23;;;;;;;1.60;0.88;;;22.60;99.90;;;;;;6120509;23;20013;-92
2021/09/09 09:47:53;;;;;;;2.35;1.00;;;22.70;99.90;;;;;;6144435;23;20100;-93
2021/09/09 09:50:22;;;;;;;3.08;1.50;;;22.70;99.90;;;;;;6120526;23;20473;-95
2021/09/09 09:53:10;;;;;;;3.63;1.73;;;22.80;99.90;;;;;;6145492;23;20104;-94
2021/09/09 09:55:41;;;;;;;1.55;0.82;;;22.90;99.90;;;;;;6144417;23;20021;-92
2021/09/09 09:58:08;;;;;;;4.28;1.02;;;23.00;99.90;;;;;;6144613;23;20097;-93
2021/09/09 10:00:35;;;;;;;2.33;1.20;;;23.10;99.90;;;;;;6121345;23;20701;-93
2021/09/09 10:03:03;;;;;;;4.82;1.13;;;23.20;99.90;;;;;;6146802;23;20046;-94
2021/09/09 10:05:32;;;;;;;2.22;0.95;;;23.20;99.90;;;;;;6146627;23;20022;-94
2021/09/09 10:07:59;;;;;;;2.80;1.30;;;23.30;99.90;;;;;;6145698;23;20541;-93
2021/09/09 10:10:26;;;;;;;2.30;0.90;;;23.50;99.90;;;;;;6120929;23;20014;-94
2021/09/09 10:12:59;;;;;;;2.17;1.20;;;23.50;99.90;;;;;;6145865;23;20049;-96
2021/09/09 10:15:27;;;;;;;2.67;1.10;;;23.60;99.90;;;;;;6145136;23;20018;-95
2021/09/09 10:17:55;;;;;;;1.80;1.05;;;23.70;99.90;;;;;;6098208;23;20014;-96
2021/09/09 10:20:36;;;;;;;3.45;1.00;;;23.80;99.90;;;;;;6144574;23;20361;-96
2021/09/09 10:23:32;;;;;;;2.45;0.93;;;23.80;99.90;;;;;;6144831;23;20010;-91
2021/09/09 10:25:59;;;;;;;2.65;0.80;;;24.10;99.90;;;;;;6146428;23;20025;-96
2021/09/09 10:28:40;;;;;;;1.75;0.90;;;24.00;99.90;;;;;;6147594;23;20018;-96
2021/09/09 10:31:21;;;;;;;1.10;0.73;;;24.10;99.90;;;;;;6126700;23;20024;-90
2021/09/09 10:33:50;;;;;;;2.88;1.10;;;24.20;99.90;;;;;;6120764;23;20021;-87
2021/09/09 10:36:39;;;;;;;2.40;1.23;;;24.30;99.90;;;;;;6143609;23;20338;-87
2021/09/09 10:39:35;;;;;;;1.52;0.80;;;24.30;99.90;;;;;;6143381;23;20014;-88
2021/09/09 10:42:40;;;;;;;1.00;0.65;;;24.40;99.90;;;;;;6141711;23;20014;-87
2021/09/09 10:45:36;;;;;;;2.42;1.23;;;24.50;99.90;;;;;;6119746;23;20010;-87
2021/09/09 10:48:23;;;;;;;2.25;1.00;;;24.70;99.90;;;;;;6143922;23;20397;-88
2021/09/09 10:51:02;;;;;;;3.08;0.75;;;24.80;99.90;;;;;;6143895;23;20029;-87
2021/09/09 10:53:53;;;;;;;2.03;0.80;;;24.90;99.90;;;;;;6143720;23;20010;-91
2021/09/09 10:56:25;;;;;;;1.23;0.65;;;24.90;99.90;;;;;;6144405;23;20073;-91
2021/09/09 10:59:12;;;;;;;1.27;0.63;;;25.00;99.90;;;;;;6144951;23;20407;-90
2021/09/09 11:01:46;;;;;;;2.33;0.77;;;25.00;99.90;;;;;;6121425;23;20022;-92
2021/09/09 11:04:34;;;;;;;2.60;0.98;;;25.10;99.90;;;;;;6144462;23;20068;-94
2021/09/09 11:07:02;;;;;;;2.63;0.90;;;25.00;99.90;;;;;;6145121;23;20018;-94
2021/09/09 11:09:29;;;;;;;2.67;1.05;;;25.20;99.90;;;;;;6144273;23;20069;-93
2021/09/09 11:12:03;;;;;;;1.80;0.77;;;25.20;99.90;;;;;;6144883;23;20458;-93
2021/09/09 11:14:36;;;;;;;4.50;1.10;;;25.30;99.90;;;;;;6145977;23;20024;-91
2021/09/09 11:17:02;;;;;;;1.60;0.73;;;25.40;99.90;;;;;;6097024;23;20018;-92
2021/09/09 11:19:29;;;;;;;0.88;0.65;;;25.50;99.90;;;;;;6097222;23;20025;-90
2021/09/09 11:22:03;;;;;;;2.05;0.90;;;25.60;99.90;;;;;;6119768;23;20014;-92
2021/09/09 11:24:34;;;;;;;1.85;0.75;;;25.60;99.90;;;;;;6144917;23;20014;-92
2021/09/09 11:27:01;;;;;;;2.15;1.15;;;25.70;99.90;;;;;;6144454;23;20014;-90
2021/09/09 11:29:28;;;;;;;2.58;1.30;;;25.70;99.90;;;;;;6169028;23;20018;-91
2021/09/09 11:31:56;;;;;;;2.13;0.88;;;25.80;99.90;;;;;;6144157;23;20025;-89
2021/09/09 11:34:27;;;;;;;1.45;0.70;;;25.90;99.90;;;;;;6143726;23;20109;-90
2021/09/09 11:36:54;;;;;;;1.50;0.60;;;25.90;99.90;;;;;;6145176;23;20447;-92
2021/09/09 11:39:23;;;;;;;1.95;0.80;;;25.90;99.90;;;;;;6144345;23;20021;-93
2021/09/09 11:41:52;;;;;;;2.78;0.82;;;25.90;99.90;;;;;;6121829;23;20379;-94
2021/09/09 11:44:28;;;;;;;1.67;0.77;;;26.00;99.90;;;;;;6144603;23;20021;-94
2021/09/09 11:46:57;;;;;;;2.17;0.80;;;26.00;99.90;;;;;;6145078;23;20104;-94
2021/09/09 11:49:34;;;;;;;1.83;0.88;;;26.00;99.90;;;;;;6169139;23;20022;-93
2021/09/09 11:52:01;;;;;;;1.20;0.70;;;26.00;99.90;;;;;;6122339;23;20018;-94
2021/09/09 11:54:30;;;;;;;1.95;0.80;;;26.00;99.10;;;;;;6146488;23;20073;-91
2021/09/09 11:57:23;;;;;;;3.00;1.15;;;26.10;99.90;;;;;;6145344;23;20097;-90
2021/09/09 12:00:03;;;;;;;1.40;0.75;;;26.10;98.90;;;;;;6146902;23;20013;-91
2021/09/09 12:02:37;;;;;;;2.75;1.13;;;26.20;99.90;;;;;;6147995;23;20010;-92
2021/09/09 12:05:17;;;;;;;1.75;0.90;;;26.20;99.90;;;;;;6149789;23;20010;-94
2021/09/09 12:08:07;;;;;;;2.30;0.98;;;26.20;99.90;;;;;;6149298;23;20021;-92
2021/09/09 12:10:51;;;;;;;;;;;;;;;;;;;;;
2021/09/09 12:14:00;;;;;;;0.88;0.70;;;26.20;99.90;;;;;;6175437;23;20045;-93
2021/09/09 12:16:35;;;;;;;2.58;1.02;;;26.20;99.90;;;;;;6147067;23;20024;-91
2021/09/09 12:19:10;;;;;;;1.77;0.80;;;26.20;99.00;;;;;;6135190;23;20474;-91
2021/09/09 12:21:52;;;;;;;2.10;1.10;;;26.30;99.90;;;;;;6150057;23;20045;-92
2021/09/09 12:24:32;;;;;;;1.42;0.90;;;26.30;97.80;;;;;;6150288;23;20010;-93
2021/09/09 12:27:05;;;;;;;3.90;1.00;;;26.30;99.90;;;;;;6128135;23;20018;-90
2021/09/09 12:29:38;;;;;;;1.75;0.73;;;26.40;99.10;;;;;;6124995;23;20070;-93
2021/09/09 12:36:12;;;;;;;1.63;0.80;;;26.50;98.90;;;;;;6172661;23;20071;-90
2021/09/09 12:38:51;;;;;;;1.83;0.88;;;26.50;98.00;;;;;;6146787;23;20049;-89
2021/09/09 12:41:39;;;;;;;2.10;0.80;;;26.50;97.00;;;;;;6148836;23;20069;-91
2021/09/09 12:44:16;;;;;;;1.90;0.82;;;26.40;98.90;;;;;;6147006;23;20049;-90
2021/09/09 12:46:54;;;;;;;1.33;0.70;;;26.40;97.00;;;;;;6148780;23;20018;-92
2021/09/09 12:49:29;;;;;;;1.90;0.73;;;26.50;97.50;;;;;;6147492;23;20022;-92
2021/09/09 12:51:56;;;;;;;1.98;1.00;;;26.40;96.30;;;;;;6147776;23;20018;-87
2021/09/09 12:54:25;;;;;;;0.85;0.43;;;26.40;96.70;;;;;;6147258;23;20024;-90
2021/09/09 12:57:02;;;;;;;1.83;0.90;;;26.30;98.60;;;;;;6124592;23;20014;-94
2021/09/09 12:59:31;;;;;;;1.10;0.70;;;26.40;99.20;;;;;;6147668;23;20075;-91
2021/09/09 13:01:57;;;;;;;2.03;0.95;;;26.40;98.20;;;;;;6147266;23;20014;-87
2021/09/09 13:04:28;;;;;;;1.98;1.00;;;26.50;99.50;;;;;;6122529;23;20009;-91
2021/09/09 13:06:58;;;;;;;1.90;0.95;;;26.50;98.40;;;;;;6148889;23;20092;-91
2021/09/09 13:09:37;;;;;;;2.03;1.00;;;26.50;96.90;;;;;;6123433;23;20014;-93
2021/09/09 13:14:51;;;;;;;1.55;0.70;;;26.40;97.20;;;;;;6171223;23;20022;-89
2021/09/09 13:17:28;;;;;;;3.38;0.95;;;26.60;96.80;;;;;;6100405;23;20045;-93
2021/09/09 13:19:55;;;;;;;3.60;1.08;;;26.70;99.00;;;;;;6146321;23;20134;-88
2021/09/09 13:22:23;;;;;;;1.20;0.73;;;26.60;97.40;;;;;;6146870;23;20017;-89
2021/09/09 13:24:50;;;;;;;1.30;0.70;;;26.50;96.90;;;;;;6123675;23;20017;-89
2021/09/09 13:27:17;;;;;;;1.38;0.70;;;26.50;97.30;;;;;;6123675;23;20481;-90
2021/09/09 13:29:43;;;;;;;2.40;0.88;;;26.50;99.90;;;;;;6146412;23;20021;-90
2021/09/09 13:32:10;;;;;;;2.05;0.90;;;26.50;98.10;;;;;;6147030;23;20345;-92